Time;durP1;ratioP1;P1;durP2;ratioP2;P2;SDS_P1;SDS_P2;PMS_P1;PMS_P2;Temp;Humidity;BMP_temperature;BMP_pressure;BME280_temperature;BME280_humidity;BME280_pressure;Samples;Min_cycle;Max_cycle;Signal;HPM_P1;HPM_P2
2023/03/25 01:44:39;;;;;;;;;;;;;;;;;;;;;
2023/03/25 01:54:40;;;;;;;;;;;;;;;;;;;;;
2023/03/25 02:01:37;;;;;;;;;;;;;;;;;;;;;
2023/03/25 02:05:14;;;;;;;;;;;;;;;;;;;;;
2023/03/25 02:12:50;;;;;;;;;;;;;;;;;;;;;
2023/03/25 02:15:00;;;;;;;;;;;;;;;;;;;;;
2023/03/25 02:25:19;;;;;;;;;;;;;;;;;;;;;
2023/03/25 02:28:13;;;;;;;;;;;;;;;;;;;;;
2023/03/25 02:31:14;;;;;;;8.10;4.53;;;;;;;10.96;63.24;98666.00;5934884;23;20234;-91
2023/03/25 02:33:58;;;;;;;11.60;4.30;;;;;;;10.90;62.63;98663.78;6126115;23;20435;-90
2023/03/25 02:36:38;;;;;;;10.23;4.90;;;;;;;10.92;62.62;98662.75;6126643;23;20136;-91
2023/03/25 02:39:31;;;;;;;;;;;;;;;;;;;;;
2023/03/25 02:42:32;;;;;;;11.80;5.27;;;;;;;10.86;61.89;98659.63;6126290;23;20246;-91
2023/03/25 02:45:47;;;;;;;;;;;;;;;;;;;;;
2023/03/25 02:48:48;;;;;;;;;;;;;;;;;;;;;
2023/03/25 02:51:43;;;;;;;9.20;4.70;;;;;;;10.79;61.73;98647.84;6125765;23;20643;-91
2023/03/25 02:54:11;;;;;;;8.70;4.53;;;;;;;10.80;61.64;98657.38;6126142;23;20196;-91
2023/03/25 02:57:30;;;;;;;;;;;;;;;;;;;;;
2023/03/25 02:59:59;;;;;;;6.53;3.60;;;;;;;10.78;61.38;98654.88;6127823;23;20248;-92
2023/03/25 03:02:30;;;;;;;7.60;4.23;;;;;;;10.74;61.49;98647.28;6100939;23;20588;-91
2023/03/25 03:06:22;;;;;;;7.07;3.80;;;;;;;10.69;62.03;98638.88;6126373;23;20175;-92
2023/03/25 03:08:32;;;;;;;7.37;3.40;;;;;;;10.60;62.39;98639.41;6101962;23;20497;-90
2023/03/25 03:11:20;;;;;;;8.97;4.03;;;;;;;10.50;63.01;98641.75;6128218;23;20136;-91
2023/03/25 03:14:12;;;;;;;7.37;3.40;;;;;;;10.30;63.63;98653.41;6102498;23;20373;-91
2023/03/25 03:16:53;;;;;;;;;;;;;;;;;;;;;
2023/03/25 03:19:45;;;;;;;8.87;3.73;;;;;;;10.27;63.90;98658.00;6128574;23;20222;-90
2023/03/25 03:22:36;;;;;;;6.63;3.00;;;;;;;10.24;64.33;98663.41;6103357;23;20155;-91
2023/03/25 03:25:05;;;;;;;7.20;3.20;;;;;;;10.21;64.29;98668.81;6127793;23;20170;-91
2023/03/25 03:27:36;;;;;;;5.07;3.00;;;;;;;10.16;64.92;98663.88;6128875;23;20171;-91
2023/03/25 03:30:18;;;;;;;9.13;3.70;;;;;;;10.16;64.37;98661.25;6126459;23;20144;-91
2023/03/25 03:32:48;;;;;;;8.47;3.83;;;;;;;10.22;64.12;98665.28;6102254;23;20144;-91
2023/03/25 03:35:48;;;;;;;;;;;;;;;;;;;;;
2023/03/25 03:38:16;;;;;;;6.57;2.90;;;;;;;10.18;64.10;98656.75;6128688;23;20210;-91
2023/03/25 03:40:47;;;;;;;7.07;3.33;;;;;;;10.19;64.01;98654.97;6127667;23;20148;-90
2023/03/25 03:43:40;;;;;;;;;;;;;;;;;;;;;
2023/03/25 03:46:23;;;;;;;14.20;4.97;;;;;;;10.10;64.74;98661.56;6129585;23;20211;-92
2023/03/25 03:49:00;;;;;;;16.10;5.27;;;;;;;9.99;64.44;98658.72;6103275;23;20149;-90
2023/03/25 03:52:07;;;;;;;8.77;4.10;;;;;;;10.00;64.56;98649.09;6101749;23;20152;-90
2023/03/25 03:54:41;;;;;;;9.23;4.00;;;;;;;9.96;64.80;98653.66;6103490;23;20449;-89
2023/03/25 03:57:22;;;;;;;9.20;4.50;;;;;;;9.97;64.42;98652.72;6127628;23;20143;-91
2023/03/25 03:59:50;;;;;;;13.07;4.67;;;;;;;9.89;64.88;98639.25;6102737;23;20167;-90
2023/03/25 04:02:37;;;;;;;7.60;4.17;;;;;;;9.92;64.58;98636.44;6127311;23;20561;-90
2023/03/25 04:05:05;;;;;;;6.13;3.70;;;;;;;10.01;64.08;98635.09;6128085;23;20215;-91
2023/03/25 04:07:55;;;;;;;7.93;3.90;;;;;;;10.08;63.84;98637.25;6101429;23;20604;-90
2023/03/25 04:11:02;;;;;;;9.47;4.70;;;;;;;10.09;63.52;98644.16;6101813;23;20227;-90
2023/03/25 04:13:49;;;;;;;13.00;5.47;;;;;;;10.05;63.51;98645.28;6081060;23;20166;-91
2023/03/25 04:16:23;;;;;;;9.43;4.93;;;;;;;9.98;63.65;98643.09;6128354;23;20222;-91
2023/03/25 04:19:12;;;;;;;9.03;4.37;;;;;;;9.91;63.82;98647.84;6102565;23;20151;-90
2023/03/25 04:21:53;;;;;;;10.53;5.97;;;;;;;9.85;63.92;98649.03;6102925;23;20155;-91
2023/03/25 04:24:25;;;;;;;14.87;6.40;;;;;;;9.80;64.62;98653.69;6126006;23;20187;-90
2023/03/25 04:26:56;;;;;;;10.03;5.67;;;;;;;9.77;64.53;98648.63;6102156;23;20183;-91
2023/03/25 04:29:22;;;;;;;11.27;5.80;;;;;;;9.75;65.26;98645.25;6101914;23;20203;-90
2023/03/25 04:31:58;;;;;;;12.80;5.67;;;;;;;9.71;66.19;98651.59;6127635;23;20587;-91
2023/03/25 04:34:25;;;;;;;10.00;4.53;;;;;;;9.69;66.77;98642.16;6102482;23;20546;-91
2023/03/25 04:36:54;;;;;;;7.73;4.37;;;;;;;9.81;66.60;98644.06;6101899;23;20155;-91
2023/03/25 04:39:28;;;;;;;9.30;4.27;;;;;;;9.85;66.58;98645.59;6125636;23;20576;-91
2023/03/25 04:42:41;;;;;;;8.83;3.90;;;;;;;9.94;66.54;98650.28;6101949;23;20221;-91
2023/03/25 04:45:03;;;;;;;;;;;;;;;;;;;;;
2023/03/25 04:47:57;;;;;;;6.33;4.07;;;;;;;10.07;66.06;98643.41;6127787;23;20211;-91
2023/03/25 04:50:54;;;;;;;7.63;4.03;;;;;;;10.11;66.20;98652.78;6102195;23;20148;-92
2023/03/25 04:54:06;;;;;;;;;;;;;;;;;;;;;
2023/03/25 04:56:53;;;;;;;11.27;5.53;;;;;;;10.27;66.20;98645.72;6127871;23;20539;-91
2023/03/25 04:59:23;;;;;;;12.10;5.10;;;;;;;10.28;66.35;98644.81;6102313;23;20555;-91
2023/03/25 05:02:12;;;;;;;21.50;8.93;;;;;;;10.35;66.37;98645.28;6101780;23;20203;-92
2023/03/25 05:04:46;;;;;;;30.03;11.23;;;;;;;10.39;66.48;98642.41;6102488;23;20180;-90
2023/03/25 05:07:11;;;;;;;21.67;8.87;;;;;;;10.41;66.62;98634.44;6126938;23;20215;-90
2023/03/25 05:09:37;;;;;;;18.43;8.50;;;;;;;10.45;66.43;98636.75;6101341;23;20159;-91
2023/03/25 05:12:02;;;;;;;28.47;12.60;;;;;;;10.54;66.45;98629.28;6125236;23;20162;-90
2023/03/25 05:14:28;;;;;;;14.33;7.37;;;;;;;10.61;66.18;98634.09;6101326;23;20184;-90
2023/03/25 05:16:56;;;;;;;18.87;9.47;;;;;;;10.66;65.87;98634.66;6101227;23;20164;-90
2023/03/25 05:19:21;;;;;;;15.17;6.27;;;;;;;10.86;64.81;98633.41;6127089;23;20147;-90
2023/03/25 05:21:47;;;;;;;12.40;6.23;;;;;;;10.98;64.19;98636.13;6127307;23;20159;-90
2023/03/25 05:24:13;;;;;;;11.00;5.40;;;;;;;11.11;64.44;98641.44;6126681;23;20611;-90
2023/03/25 05:26:41;;;;;;;12.47;6.20;;;;;;;11.29;64.89;98640.31;6126863;23;20255;-90
2023/03/25 05:29:12;;;;;;;14.50;5.93;;;;;;;11.61;65.78;98644.31;6126613;23;20163;-91
2023/03/25 05:31:40;;;;;;;9.70;4.73;;;;;;;12.02;65.27;98635.56;6127364;23;20132;-91
2023/03/25 05:34:10;;;;;;;9.67;4.53;;;;;;;12.69;64.38;98622.16;6100851;23;20591;-91
2023/03/25 05:36:36;;;;;;;7.07;3.73;;;;;;;13.29;61.53;98622.28;6126815;23;20467;-92
2023/03/25 05:39:07;;;;;;;5.53;3.57;;;;;;;13.70;60.05;98611.41;6126599;23;20229;-91
2023/03/25 05:41:38;;;;;;;6.07;3.07;;;;;;;14.06;58.23;98611.31;6100946;23;20157;-91
2023/03/25 05:46:54;;;;;;;7.20;4.10;;;;;;;14.98;54.17;98608.59;6126579;23;20190;-91
2023/03/25 05:49:20;;;;;;;7.57;3.57;;;;;;;15.49;53.08;98608.88;6100984;23;20241;-91
2023/03/25 05:51:48;;;;;;;6.73;3.30;;;;;;;16.27;51.28;98601.47;6126483;23;20482;-91
2023/03/25 05:54:17;;;;;;;7.20;3.20;;;;;;;17.01;48.83;98602.16;6126568;23;20148;-91
2023/03/25 05:56:45;;;;;;;7.07;3.57;;;;;;;17.20;47.93;98603.09;6126458;23;20153;-91
2023/03/25 05:59:13;;;;;;;8.33;3.60;;;;;;;17.21;48.86;98595.97;6100654;23;20212;-90
2023/03/25 06:01:44;;;;;;;6.60;3.83;;;;;;;17.11;48.41;98597.78;6125453;23;20163;-91
2023/03/25 06:04:17;;;;;;;9.57;3.53;;;;;;;17.33;48.74;98597.53;6127105;23;20193;-91
2023/03/25 06:06:48;;;;;;;7.93;3.30;;;;;;;18.33;46.21;98589.25;6126356;23;20147;-91
2023/03/25 06:09:16;;;;;;;5.13;3.20;;;;;;;19.70;43.56;98589.38;6100798;23;20604;-91
2023/03/25 06:11:42;;;;;;;6.47;4.00;;;;;;;20.92;40.74;98587.50;6123644;23;20249;-90
2023/03/25 06:14:08;;;;;;;7.53;3.63;;;;;;;22.69;38.49;98578.19;6124470;23;20579;-89
2023/03/25 06:16:34;;;;;;;8.10;3.60;;;;;;;23.85;34.65;98592.41;6126180;23;20218;-91
2023/03/25 06:19:00;;;;;;;7.07;3.27;;;;;;;24.28;34.75;98588.28;6124458;23;20226;-90
2023/03/25 06:21:32;;;;;;;6.30;3.27;;;;;;;24.68;34.26;98581.72;6125954;23;20161;-89
2023/03/25 06:24:00;;;;;;;5.33;3.17;;;;;;;25.06;33.74;98579.78;6124615;23;20583;-89
2023/03/25 06:26:26;;;;;;;6.70;3.23;;;;;;;25.82;32.11;98584.69;6123800;23;20167;-89
2023/03/25 06:28:51;;;;;;;4.83;2.70;;;;;;;26.75;29.91;98571.06;6124065;23;20339;-89
2023/03/25 06:31:21;;;;;;;4.63;2.50;;;;;;;27.51;29.01;98577.31;6123755;23;20151;-91
2023/03/25 06:33:47;;;;;;;4.63;2.73;;;;;;;28.13;28.29;98579.75;6122636;23;20472;-90
2023/03/25 06:36:17;;;;;;;5.17;2.60;;;;;;;28.60;27.86;98576.88;6123541;23;20238;-90
2023/03/25 06:38:44;;;;;;;5.03;2.55;;;;;;;28.94;26.94;98583.91;6099733;23;20601;-92
2023/03/25 06:41:10;;;;;;;6.53;3.17;;;;;;;28.95;27.01;98577.47;6100644;23;20543;-91
2023/03/25 06:43:36;;;;;;;5.95;2.63;;;;;;;28.95;27.75;98582.88;6124885;23;20163;-91
2023/03/25 06:46:02;;;;;;;5.13;2.80;;;;;;;29.18;26.50;98580.53;6101560;23;20221;-91
2023/03/25 06:48:28;;;;;;;6.28;2.67;;;;;;;29.22;26.08;98581.78;6128938;23;20171;-90
2023/03/25 06:50:54;;;;;;;4.82;2.65;;;;;;;29.29;26.39;98579.91;6103119;23;20586;-92
2023/03/25 06:53:19;;;;;;;5.30;2.92;;;;;;;29.22;26.11;98587.19;6128207;23;20156;-93
2023/03/25 06:56:10;;;;;;;5.47;3.00;;;;;;;29.16;26.08;98590.72;6104175;23;20184;-93
2023/03/25 12:41:13;;;;;;;;;;;;;;;;;;;;;
2023/03/25 17:33:16;;;;;;;10.60;4.50;;;;;;;24.60;36.65;98110.16;6026806;23;20195;-93
2023/03/25 17:43:22;;;;;;;;;;;;;;;;;;;;;
2023/03/25 17:46:00;;;;;;;12.13;4.70;;;;;;;24.67;36.86;98147.72;5879264;24;20615;-93
2023/03/25 17:51:39;;;;;;;7.17;3.20;;;;;;;23.18;40.66;98192.84;5986684;24;20497;-89
2023/03/25 18:33:12;;;;;;;7.97;4.50;;;;;;;18.26;73.58;98263.66;6203448;23;20292;-89
2023/03/25 18:36:13;;;;;;;9.97;5.47;;;;;;;18.07;74.63;98253.16;6216939;23;20314;-93
2023/03/25 20:08:55;;;;;;;7.07;4.27;;;;;;;18.22;70.22;98264.91;6185992;22;20213;-89
2023/03/25 20:11:20;;;;;;;8.40;4.03;;;;;;;18.28;70.23;98262.50;6159546;23;20166;-89
2023/03/25 20:13:49;;;;;;;6.10;3.93;;;;;;;18.37;70.07;98260.75;6157134;23;20657;-90
2023/03/25 20:16:14;;;;;;;8.23;4.20;;;;;;;18.46;70.21;98249.25;6184993;23;20149;-91
2023/03/25 20:18:40;;;;;;;5.50;3.67;;;;;;;18.53;69.97;98260.94;6159444;23;20154;-90
2023/03/25 20:21:10;;;;;;;8.53;4.57;;;;;;;18.37;69.85;98247.50;6159720;23;20159;-90
2023/03/25 20:23:36;;;;;;;10.63;4.93;;;;;;;18.29;70.32;98229.66;6185765;23;20150;-90
2023/03/25 20:26:02;;;;;;;12.63;4.63;;;;;;;18.33;70.41;98212.47;6159582;23;20575;-90
2023/03/25 20:28:30;;;;;;;7.50;4.23;;;;;;;18.16;71.42;98207.19;6185213;23;20261;-90
2023/03/25 20:30:56;;;;;;;9.77;4.07;;;;;;;18.18;71.49;98198.09;6159882;23;20151;-90
2023/03/25 20:33:22;;;;;;;8.93;4.43;;;;;;;17.98;72.03;98193.03;6185901;23;20481;-91
2023/03/25 20:35:48;;;;;;;6.90;4.40;;;;;;;18.09;71.54;98193.66;6185032;23;20150;-91
2023/03/25 20:38:19;;;;;;;7.97;4.60;;;;;;;17.90;71.89;98193.78;6184563;23;20153;-91
2023/03/25 20:40:44;;;;;;;7.97;4.20;;;;;;;18.00;71.74;98188.44;6160698;23;20165;-91
2023/03/25 20:43:12;;;;;;;11.93;4.77;;;;;;;18.01;71.71;98184.78;6185576;23;20618;-92
2023/03/25 20:45:37;;;;;;;8.13;4.53;;;;;;;18.12;71.75;98192.53;6159939;23;20171;-91
2023/03/25 20:48:06;;;;;;;9.20;4.70;;;;;;;18.24;71.53;98192.16;6185827;23;20610;-92
2023/03/25 20:50:33;;;;;;;9.60;4.80;;;;;;;18.19;71.44;98198.91;6159458;23;20585;-92
2023/03/25 20:53:03;;;;;;;11.77;5.63;;;;;;;18.25;71.65;98193.00;6185556;23;20169;-92
2023/03/25 20:55:31;;;;;;;9.63;5.57;;;;;;;18.33;71.83;98203.69;6159592;23;20163;-92
2023/03/25 20:58:20;;;;;;;11.57;5.67;;;;;;;18.36;71.57;98193.63;6185258;23;20181;-91
2023/03/25 21:01:24;;;;;;;10.40;5.77;;;;;;;18.39;71.37;98201.25;6184937;23;20547;-92
2023/03/25 21:04:19;;;;;;;;;;;;;;;;;;;;;
2023/03/25 21:07:05;;;;;;;;;;;;;;;;;;;;;
2023/03/25 21:09:33;;;;;;;8.83;5.33;;;;;;;18.53;70.64;98201.72;6158122;23;20276;-92
2023/03/25 21:12:49;;;;;;;;;;;;;;;;;;;;;
2023/03/25 21:23:05;;;;;;;;;;;;;;;;;;;;;
2023/03/25 21:55:16;;;;;;;;;;;;;;;;;;;;;
2023/03/25 22:15:52;;;;;;;;;;;;;;;;;;;;;
2023/03/25 23:16:50;;;;;;;;;;;;;;;;;;;;;
